Terminal Aerodrome Forecast
Issued by NWS Albany, NY

Home | Current Version | Previous Version | Text Only | Print | Product List | Glossary On
Versions: 1 2 3 4 5 6 7 8 9 10 11 12 13
000
FTUS41 KALY 222300 RRA
TAFPOU
TAF
KPOU 222351Z 2300/2324 20004KT P6SM SCT060
     FM230600 00000KT 4SM BR SKC
     FM231000 18003KT 2SM BR SCT250
     FM231300 20005KT 6SM HZ SCT050 SCT250
     FM231600 21007KT P6SM SCT050 SCT250
     FM231800 22008KT P6SM SCT050 BKN100
     FM232200 23007KT P6SM BKN050 BKN100 PROB30 2322/2324 3SM TSRA
      BR BKN015CB BKN035=

USA.gov is the U.S. government's official web portal to all federal, state and local government web resources and services.